Time;durP1;ratioP1;P1;durP2;ratioP2;P2;SDS_P1;SDS_P2;PMS_P1;PMS_P2;Temp;Humidity;BMP_temperature;BMP_pressure;BME280_temperature;BME280_humidity;BME280_pressure;Samples;Min_cycle;Max_cycle;Signal;HPM_P1;HPM_P2
2023/03/31 00:01:34;;;;;;;12.85;2.13;;;9.90;99.90;;;;;;5083492;28;20509;-41
2023/03/31 00:04:03;;;;;;;7.82;1.23;;;9.90;99.90;;;;;;5078263;28;20052;-42
2023/03/31 00:06:40;;;;;;;15.23;1.95;;;9.90;99.90;;;;;;5071686;28;21383;-41
2023/03/31 00:09:10;;;;;;;11.13;1.50;;;9.80;99.90;;;;;;5078013;28;21790;-41
2023/03/31 00:11:36;;;;;;;7.95;1.48;;;9.80;99.90;;;;;;5081186;28;20056;-42
2023/03/31 00:14:06;;;;;;;8.57;1.20;;;9.80;99.90;;;;;;5068397;28;20471;-42
2023/03/31 00:16:32;;;;;;;11.77;1.33;;;9.70;99.90;;;;;;5078850;28;20059;-42
2023/03/31 00:19:00;;;;;;;13.95;1.80;;;9.70;99.90;;;;;;5078689;28;20055;-44
2023/03/31 00:21:33;;;;;;;9.57;1.25;;;9.60;99.90;;;;;;5078560;28;20063;-42
2023/03/31 00:24:08;;;;;;;9.95;1.83;;;9.60;99.90;;;;;;5077963;28;20110;-42
2023/03/31 00:26:35;;;;;;;12.70;1.73;;;9.60;99.90;;;;;;5078475;28;20059;-42
2023/03/31 00:29:01;;;;;;;7.43;1.08;;;9.60;99.90;;;;;;5077540;28;20079;-43
2023/03/31 00:31:28;;;;;;;10.13;2.08;;;9.60;99.90;;;;;;5080279;28;20052;-43
2023/03/31 00:33:54;;;;;;;10.30;1.52;;;9.60;99.90;;;;;;5078188;28;20098;-43
2023/03/31 00:36:25;;;;;;;8.15;1.25;;;9.50;99.90;;;;;;5077458;28;20048;-43
2023/03/31 00:38:52;;;;;;;9.05;2.17;;;9.50;99.90;;;;;;5079059;28;20050;-42
2023/03/31 00:41:18;;;;;;;8.23;1.73;;;9.50;99.90;;;;;;5077672;28;20040;-43
2023/03/31 00:44:05;;;;;;;10.35;1.27;;;9.50;99.90;;;;;;5077623;28;20051;-42
2023/03/31 00:46:37;;;;;;;13.95;1.63;;;9.40;99.90;;;;;;5076448;28;20493;-42
2023/03/31 00:49:03;;;;;;;11.05;1.52;;;9.40;99.90;;;;;;5074773;28;20056;-42
2023/03/31 00:51:31;;;;;;;7.82;1.35;;;9.40;99.90;;;;;;5078092;28;20048;-42
2023/03/31 00:54:00;;;;;;;9.40;1.98;;;9.40;99.90;;;;;;5079529;28;20158;-44
2023/03/31 00:56:33;;;;;;;15.30;2.72;;;9.40;99.90;;;;;;5076218;28;20044;-43
2023/03/31 00:59:03;;;;;;;8.57;1.40;;;9.40;99.90;;;;;;5073052;28;20118;-43
2023/03/31 01:01:30;;;;;;;9.48;1.65;;;9.40;99.90;;;;;;5055311;28;20059;-43
2023/03/31 01:03:58;;;;;;;13.60;1.65;;;9.40;99.90;;;;;;5059695;28;20056;-43
2023/03/31 01:06:24;;;;;;;11.57;1.50;;;9.40;99.90;;;;;;5070601;28;20524;-42
2023/03/31 01:08:51;;;;;;;7.68;0.90;;;9.50;99.90;;;;;;5054110;28;20456;-42
2023/03/31 01:11:19;;;;;;;9.00;1.50;;;9.40;99.90;;;;;;5066154;28;20680;-43
2023/03/31 01:13:49;;;;;;;11.43;2.22;;;9.40;99.90;;;;;;5061984;28;21153;-43
2023/03/31 01:16:16;;;;;;;15.02;1.83;;;9.40;99.90;;;;;;5064265;28;20547;-43
2023/03/31 01:18:48;;;;;;;10.35;1.13;;;9.40;99.90;;;;;;5061109;28;20052;-47
2023/03/31 01:21:46;;;;;;;10.13;1.57;;;9.40;99.90;;;;;;5058936;28;20418;-47
2023/03/31 01:25:11;;;;;;;9.50;1.50;;;9.40;99.90;;;;;;5060036;28;20512;-43
2023/03/31 01:28:04;;;;;;;11.57;1.83;;;9.40;99.90;;;;;;5031818;28;20479;-42
2023/03/31 01:30:52;;;;;;;10.52;1.25;;;9.50;99.90;;;;;;5058405;28;20056;-42
2023/03/31 01:33:59;;;;;;;14.77;1.55;;;9.50;99.90;;;;;;5055891;28;20072;-42
2023/03/31 01:36:31;;;;;;;10.55;2.17;;;9.50;99.90;;;;;;5035808;28;20052;-43
2023/03/31 01:39:13;;;;;;;10.55;1.45;;;9.50;99.90;;;;;;5063518;28;20059;-43
2023/03/31 01:42:17;;;;;;;12.83;1.97;;;9.50;99.90;;;;;;5059891;28;20053;-43
2023/03/31 01:45:05;;;;;;;7.28;1.65;;;9.50;99.90;;;;;;5063574;28;20291;-42
2023/03/31 01:47:56;;;;;;;11.40;1.85;;;9.50;99.90;;;;;;5060356;28;20457;-41
2023/03/31 01:50:35;;;;;;;14.73;2.20;;;9.50;99.90;;;;;;5058706;28;20151;-43
2023/03/31 01:53:06;;;;;;;10.38;1.55;;;9.50;99.90;;;;;;5061274;28;20101;-42
2023/03/31 01:55:47;;;;;;;9.82;2.03;;;9.50;99.90;;;;;;5057535;28;20049;-43
2023/03/31 01:58:20;;;;;;;8.40;2.00;;;9.50;99.90;;;;;;5054257;28;20045;-42
2023/03/31 02:01:00;;;;;;;15.07;1.60;;;9.60;99.90;;;;;;5070896;28;20047;-42
2023/03/31 02:03:36;;;;;;;13.95;1.48;;;9.50;99.90;;;;;;5079527;28;20067;-44
2023/03/31 02:06:13;;;;;;;7.13;1.48;;;9.60;99.90;;;;;;5078762;28;20078;-45
2023/03/31 02:08:53;;;;;;;8.90;1.45;;;9.60;99.90;;;;;;5076108;28;20139;-43
2023/03/31 02:11:20;;;;;;;9.35;1.33;;;9.60;99.90;;;;;;5086334;28;20044;-45
2023/03/31 02:13:49;;;;;;;8.35;1.70;;;9.70;99.90;;;;;;5078120;28;20059;-44
2023/03/31 02:16:23;;;;;;;7.57;1.42;;;9.70;99.90;;;;;;5078985;28;20055;-47
2023/03/31 02:18:52;;;;;;;8.75;1.45;;;9.70;99.90;;;;;;5081512;28;20537;-44
2023/03/31 02:21:21;;;;;;;4.90;1.27;;;9.70;99.90;;;;;;5081694;28;20040;-42
2023/03/31 02:23:50;;;;;;;8.23;1.60;;;9.70;99.90;;;;;;5075192;28;20134;-44
2023/03/31 02:26:23;;;;;;;6.22;1.60;;;9.80;99.90;;;;;;5078249;28;20904;-45
2023/03/31 02:28:49;;;;;;;9.18;1.50;;;9.80;99.90;;;;;;5080180;28;20576;-44
2023/03/31 02:31:35;;;;;;;11.25;1.95;;;9.80;99.90;;;;;;5064177;28;20048;-45
2023/03/31 02:34:02;;;;;;;6.32;1.40;;;9.80;99.90;;;;;;5077218;28;20052;-47
2023/03/31 02:36:28;;;;;;;6.88;2.10;;;9.80;99.90;;;;;;5084676;28;20048;-46
2023/03/31 02:39:03;;;;;;;10.18;1.98;;;9.80;99.90;;;;;;5080421;28;20051;-44
2023/03/31 02:41:29;;;;;;;6.07;1.15;;;9.80;99.90;;;;;;5083843;28;20122;-45
2023/03/31 02:43:55;;;;;;;11.45;2.00;;;9.80;99.90;;;;;;5078616;28;20040;-44
2023/03/31 02:46:21;;;;;;;9.82;1.48;;;9.80;99.90;;;;;;5080156;28;20036;-47
2023/03/31 02:48:50;;;;;;;7.15;1.30;;;9.80;99.90;;;;;;5080294;28;20052;-45
2023/03/31 02:51:25;;;;;;;6.97;1.38;;;9.90;99.90;;;;;;5084391;28;20550;-45
2023/03/31 02:54:25;;;;;;;7.75;1.75;;;9.90;99.90;;;;;;5082113;28;20048;-45
2023/03/31 02:56:51;;;;;;;10.02;1.27;;;9.90;99.90;;;;;;5080500;28;20043;-44
2023/03/31 02:59:28;;;;;;;9.50;1.55;;;9.90;99.90;;;;;;5082050;28;20512;-48
2023/03/31 03:02:48;;;;;;;12.00;2.13;;;9.90;99.90;;;;;;5076077;28;20071;-45
2023/03/31 03:05:27;;;;;;;5.53;1.52;;;9.90;99.90;;;;;;5019578;28;20061;-47
2023/03/31 03:08:34;;;;;;;9.00;1.60;;;9.90;99.90;;;;;;5020660;28;20383;-44
2023/03/31 03:11:10;;;;;;;7.38;1.70;;;9.90;99.90;;;;;;5053519;28;20495;-44
2023/03/31 03:14:18;;;;;;;5.63;1.55;;;9.90;99.90;;;;;;5074439;28;20170;-44
2023/03/31 03:16:49;;;;;;;8.10;1.77;;;9.90;99.90;;;;;;5066762;28;20052;-44
2023/03/31 03:19:20;;;;;;;5.40;1.77;;;9.90;99.90;;;;;;5076463;28;20048;-46
2023/03/31 03:21:46;;;;;;;7.03;2.40;;;9.90;99.90;;;;;;5079751;28;20065;-45
2023/03/31 03:24:14;;;;;;;9.13;1.90;;;9.90;99.90;;;;;;5078247;28;20489;-45
2023/03/31 03:26:40;;;;;;;8.98;1.98;;;9.90;99.90;;;;;;5079208;28;20080;-44
2023/03/31 03:29:06;;;;;;;9.23;2.42;;;9.90;99.90;;;;;;5080099;28;20139;-48
2023/03/31 03:31:32;;;;;;;8.77;1.98;;;9.90;99.90;;;;;;5080225;28;20075;-47
2023/03/31 03:33:58;;;;;;;6.07;1.95;;;9.90;99.90;;;;;;5073336;28;20047;-44
2023/03/31 03:36:24;;;;;;;6.78;1.95;;;9.90;99.90;;;;;;5079153;28;20046;-43
2023/03/31 03:38:50;;;;;;;7.68;1.98;;;9.90;99.90;;;;;;5076688;28;20092;-47
2023/03/31 03:41:15;;;;;;;9.85;1.73;;;9.90;99.90;;;;;;5078233;28;20384;-47
2023/03/31 03:43:41;;;;;;;8.20;2.22;;;10.00;99.90;;;;;;5072347;28;20102;-48
2023/03/31 03:46:07;;;;;;;6.35;2.05;;;10.00;99.90;;;;;;5077598;28;20481;-47
2023/03/31 03:48:33;;;;;;;8.55;1.90;;;10.00;99.90;;;;;;5080911;28;20052;-44
2023/03/31 03:51:00;;;;;;;4.97;1.80;;;10.00;99.90;;;;;;5077280;28;20143;-45
2023/03/31 03:53:26;;;;;;;5.00;2.00;;;10.00;99.90;;;;;;5081166;28;20052;-45
2023/03/31 03:55:51;;;;;;;8.15;1.83;;;10.00;99.90;;;;;;5078344;28;20406;-48
2023/03/31 03:58:20;;;;;;;5.75;1.75;;;10.00;99.90;;;;;;5072487;28;20055;-44
2023/03/31 04:00:46;;;;;;;7.22;1.85;;;10.00;99.90;;;;;;5072453;28;20068;-44
2023/03/31 04:03:12;;;;;;;6.60;2.13;;;10.00;99.90;;;;;;5071979;28;20128;-45
2023/03/31 04:05:38;;;;;;;7.40;2.17;;;10.00;99.90;;;;;;5074217;28;20043;-44
2023/03/31 04:08:05;;;;;;;5.47;1.58;;;10.00;99.90;;;;;;5076306;28;20071;-48
2023/03/31 04:10:31;;;;;;;6.65;1.80;;;10.00;99.90;;;;;;5071638;28;20442;-43
2023/03/31 04:12:56;;;;;;;5.97;1.55;;;10.00;99.90;;;;;;5071603;28;20040;-49
2023/03/31 04:15:22;;;;;;;8.52;1.90;;;10.00;99.90;;;;;;5070559;28;20059;-44
2023/03/31 04:17:49;;;;;;;6.68;2.20;;;10.00;99.90;;;;;;5071178;28;20467;-47
2023/03/31 04:20:16;;;;;;;6.55;1.77;;;10.00;99.90;;;;;;5076763;28;20052;-44
2023/03/31 04:22:45;;;;;;;7.05;2.25;;;10.00;99.90;;;;;;5075981;28;20512;-47
2023/03/31 04:25:15;;;;;;;6.25;1.50;;;10.00;99.90;;;;;;5074825;28;20490;-45
2023/03/31 04:27:59;;;;;;;7.70;2.05;;;10.00;99.90;;;;;;5080257;28;20454;-50
2023/03/31 04:30:32;;;;;;;7.55;1.67;;;10.00;99.90;;;;;;5079938;28;20105;-44
2023/03/31 04:32:59;;;;;;;8.80;1.63;;;10.00;99.90;;;;;;5076591;28;20549;-44
2023/03/31 04:35:41;;;;;;;6.60;1.98;;;10.00;99.90;;;;;;5084369;28;20486;-44
2023/03/31 04:38:07;;;;;;;8.00;2.15;;;10.10;99.90;;;;;;5079838;28;20047;-42
2023/03/31 04:40:34;;;;;;;5.68;1.77;;;10.00;99.90;;;;;;5082085;28;20131;-46
2023/03/31 04:43:00;;;;;;;9.45;1.23;;;10.00;99.90;;;;;;5078319;28;20052;-45
2023/03/31 04:45:26;;;;;;;7.47;1.38;;;10.00;99.90;;;;;;5079468;28;20048;-47
2023/03/31 04:47:51;;;;;;;7.05;1.90;;;10.00;99.90;;;;;;5073374;28;20135;-47
2023/03/31 04:50:17;;;;;;;6.75;1.70;;;10.00;99.90;;;;;;5079762;28;20109;-48
2023/03/31 04:52:43;;;;;;;7.32;1.58;;;10.00;99.90;;;;;;5077008;28;20060;-46
2023/03/31 04:55:09;;;;;;;6.25;1.60;;;10.00;99.90;;;;;;5075293;28;20664;-45
2023/03/31 04:57:36;;;;;;;6.13;1.50;;;10.00;99.90;;;;;;5070967;28;20082;-49
2023/03/31 05:00:06;;;;;;;5.93;1.40;;;10.00;99.90;;;;;;5072200;28;20045;-45
2023/03/31 05:02:31;;;;;;;8.65;1.67;;;9.90;99.90;;;;;;5082334;28;20048;-45
2023/03/31 05:04:57;;;;;;;6.03;1.88;;;9.90;99.90;;;;;;5081283;28;20441;-48
2023/03/31 05:07:23;;;;;;;7.70;1.65;;;9.90;99.90;;;;;;5055384;28;20048;-46
2023/03/31 05:09:49;;;;;;;5.40;1.40;;;9.90;99.90;;;;;;5057289;28;20569;-49
2023/03/31 05:12:15;;;;;;;5.72;2.35;;;9.90;99.90;;;;;;5080112;28;20051;-45
2023/03/31 05:14:40;;;;;;;6.55;1.15;;;9.90;99.90;;;;;;5079924;28;20059;-45
2023/03/31 05:17:06;;;;;;;3.97;1.15;;;9.90;99.90;;;;;;5077195;28;20135;-47
2023/03/31 05:19:35;;;;;;;5.45;1.40;;;9.90;99.90;;;;;;5080848;28;20869;-44
2023/03/31 05:22:00;;;;;;;7.57;1.80;;;9.90;99.90;;;;;;5076865;28;20782;-50
2023/03/31 05:24:29;;;;;;;9.70;1.63;;;9.90;99.90;;;;;;5077785;28;20079;-48
2023/03/31 05:26:56;;;;;;;6.07;1.50;;;9.80;99.90;;;;;;5073972;28;20069;-45
2023/03/31 05:29:23;;;;;;;8.02;1.75;;;9.80;99.90;;;;;;5078657;28;20117;-44
2023/03/31 05:31:49;;;;;;;9.15;1.83;;;9.90;99.90;;;;;;5071728;28;20044;-39
2023/03/31 05:34:15;;;;;;;3.55;1.02;;;9.80;99.90;;;;;;5074582;28;20048;-38
2023/03/31 05:36:42;;;;;;;6.75;1.92;;;9.80;99.90;;;;;;5080019;28;20823;-38
2023/03/31 05:39:08;;;;;;;5.95;1.20;;;9.80;99.90;;;;;;5078232;28;20119;-38
2023/03/31 05:41:34;;;;;;;3.90;1.27;;;9.80;99.90;;;;;;5081162;28;20056;-38
2023/03/31 05:44:03;;;;;;;5.68;1.30;;;9.80;99.90;;;;;;5076422;28;20555;-38
2023/03/31 05:46:28;;;;;;;6.45;1.73;;;9.70;99.90;;;;;;5077053;28;20462;-38
2023/03/31 05:48:55;;;;;;;3.03;1.20;;;9.70;99.90;;;;;;5074278;28;20150;-38
2023/03/31 05:51:21;;;;;;;4.55;1.08;;;9.70;99.90;;;;;;5059358;28;20048;-38
2023/03/31 05:53:47;;;;;;;6.95;1.70;;;9.70;99.90;;;;;;5076746;28;20079;-38
2023/03/31 05:56:13;;;;;;;6.10;1.40;;;9.80;99.90;;;;;;5073860;28;20137;-38
2023/03/31 05:58:39;;;;;;;5.65;1.15;;;9.80;99.90;;;;;;5081091;28;20044;-38
2023/03/31 06:01:05;;;;;;;5.20;1.15;;;9.70;99.90;;;;;;5073091;28;20067;-38
2023/03/31 06:03:32;;;;;;;4.60;1.30;;;9.70;99.90;;;;;;5080623;28;20040;-38
2023/03/31 06:05:58;;;;;;;8.13;1.45;;;9.70;99.90;;;;;;5077709;28;20036;-39
2023/03/31 06:08:23;;;;;;;5.70;1.45;;;9.70;99.90;;;;;;5077704;28;20085;-38
2023/03/31 06:10:49;;;;;;;3.08;1.02;;;9.70;99.90;;;;;;5065928;28;20052;-38
2023/03/31 06:13:15;;;;;;;4.60;1.38;;;9.70;99.90;;;;;;5075816;28;20058;-38
2023/03/31 06:15:41;;;;;;;4.10;1.45;;;9.80;99.90;;;;;;5075550;28;20056;-38
2023/03/31 06:18:09;;;;;;;6.80;1.73;;;9.80;99.90;;;;;;5072847;28;20127;-37
2023/03/31 06:20:35;;;;;;;7.88;1.98;;;9.80;99.90;;;;;;5079229;28;20056;-38
2023/03/31 06:23:01;;;;;;;7.95;2.38;;;9.80;99.90;;;;;;5080770;28;20113;-38
2023/03/31 06:25:27;;;;;;;7.85;2.00;;;9.80;99.90;;;;;;5075878;28;20043;-37
2023/03/31 06:27:52;;;;;;;5.90;1.90;;;9.80;99.90;;;;;;5082999;28;20068;-38
2023/03/31 06:30:18;;;;;;;8.13;2.50;;;9.80;99.90;;;;;;5078965;28;20417;-38
2023/03/31 06:32:44;;;;;;;6.53;1.90;;;9.80;99.90;;;;;;5078459;28;20051;-38
2023/03/31 06:35:09;;;;;;;8.07;1.88;;;9.80;99.90;;;;;;5073953;28;20071;-38
2023/03/31 06:37:35;;;;;;;6.82;2.00;;;9.90;99.90;;;;;;5078472;28;20047;-38
2023/03/31 06:40:01;;;;;;;8.93;2.10;;;9.90;99.90;;;;;;5075993;28;20105;-38
2023/03/31 06:42:27;;;;;;;5.88;1.98;;;9.90;99.90;;;;;;5082166;28;20406;-38
2023/03/31 06:44:54;;;;;;;8.85;2.05;;;9.90;99.90;;;;;;5074494;28;20089;-37
2023/03/31 06:47:20;;;;;;;6.13;1.70;;;9.90;99.90;;;;;;5085281;28;20493;-37
2023/03/31 06:49:45;;;;;;;4.80;1.40;;;9.90;99.90;;;;;;5080267;28;20735;-37
2023/03/31 06:52:11;;;;;;;8.35;1.58;;;9.90;99.90;;;;;;5081717;28;20053;-38
2023/03/31 06:54:37;;;;;;;5.28;1.40;;;10.00;99.90;;;;;;5076651;28;20080;-37
2023/03/31 06:57:03;;;;;;;5.70;1.10;;;10.00;99.90;;;;;;5080181;28;20072;-38
2023/03/31 06:59:28;;;;;;;4.18;1.33;;;10.00;99.90;;;;;;5083011;28;20078;-38
2023/03/31 07:01:54;;;;;;;4.85;1.30;;;10.00;99.90;;;;;;5076906;28;20458;-38
2023/03/31 07:04:19;;;;;;;8.60;2.40;;;10.10;99.90;;;;;;5075529;28;20444;-38
2023/03/31 07:06:45;;;;;;;9.82;2.28;;;10.10;99.90;;;;;;5060150;28;20087;-38
2023/03/31 07:09:11;;;;;;;4.55;1.13;;;10.10;99.90;;;;;;5077814;28;20102;-42
2023/03/31 07:11:36;;;;;;;5.95;1.55;;;10.10;99.90;;;;;;5077429;28;20452;-43
2023/03/31 07:14:02;;;;;;;8.45;1.48;;;10.10;99.90;;;;;;5079492;28;20566;-44
2023/03/31 07:16:28;;;;;;;7.22;1.90;;;10.20;99.90;;;;;;5078927;28;20068;-45
2023/03/31 07:18:58;;;;;;;6.72;1.52;;;10.20;99.90;;;;;;5079523;28;20159;-43
2023/03/31 07:21:24;;;;;;;6.40;1.58;;;10.20;99.90;;;;;;5078060;28;20405;-43
2023/03/31 07:23:50;;;;;;;5.20;1.30;;;10.30;99.90;;;;;;5078564;28;20052;-43
2023/03/31 07:26:15;;;;;;;10.07;1.85;;;10.30;99.90;;;;;;5074211;28;20563;-47
2023/03/31 07:28:41;;;;;;;4.35;1.30;;;10.30;99.90;;;;;;5077813;28;20048;-44
2023/03/31 07:31:14;;;;;;;5.72;1.40;;;10.30;99.90;;;;;;5072429;28;20628;-42
2023/03/31 07:33:40;;;;;;;7.68;1.98;;;10.40;99.90;;;;;;5062305;28;20138;-45
2023/03/31 07:36:07;;;;;;;7.75;1.30;;;10.40;99.90;;;;;;5076880;28;20050;-44
2023/03/31 07:38:32;;;;;;;7.55;1.50;;;10.40;99.90;;;;;;5079701;28;20516;-38
2023/03/31 07:40:58;;;;;;;8.05;1.50;;;10.50;99.90;;;;;;5077072;28;20048;-37
2023/03/31 07:43:24;;;;;;;8.77;1.40;;;10.50;99.90;;;;;;5079055;28;20052;-38
2023/03/31 07:45:50;;;;;;;6.95;1.55;;;10.50;99.90;;;;;;5076045;28;20055;-45
2023/03/31 07:48:15;;;;;;;6.18;2.08;;;10.50;99.90;;;;;;5079009;28;20062;-37
2023/03/31 07:50:41;;;;;;;7.90;1.85;;;10.50;99.90;;;;;;5069720;28;20070;-39
2023/03/31 07:53:07;;;;;;;6.07;1.10;;;10.60;99.90;;;;;;5081175;28;20051;-38
2023/03/31 07:55:33;;;;;;;4.97;1.55;;;10.60;99.90;;;;;;5074072;28;20060;-42
2023/03/31 07:57:58;;;;;;;7.13;1.40;;;10.60;99.90;;;;;;5082476;28;20131;-42
2023/03/31 08:00:24;;;;;;;4.50;0.98;;;10.60;99.90;;;;;;5076918;28;20198;-38
2023/03/31 08:02:50;;;;;;;5.07;1.20;;;10.70;99.90;;;;;;5080796;28;20064;-38
2023/03/31 08:05:19;;;;;;;3.83;0.90;;;10.70;99.90;;;;;;5071300;28;20068;-38
2023/03/31 08:07:47;;;;;;;6.25;1.08;;;10.70;99.90;;;;;;5078023;28;20124;-37
2023/03/31 08:10:23;;;;;;;6.40;1.15;;;10.70;99.90;;;;;;5079676;28;20055;-37
2023/03/31 08:12:48;;;;;;;3.70;0.95;;;10.70;99.90;;;;;;5062636;28;20550;-37
2023/03/31 08:15:15;;;;;;;4.68;1.30;;;10.80;99.90;;;;;;5075959;28;20056;-38
2023/03/31 08:17:41;;;;;;;6.72;1.40;;;10.80;99.90;;;;;;5077557;28;20045;-38
2023/03/31 08:20:09;;;;;;;3.80;1.00;;;10.90;99.90;;;;;;5075355;28;20074;-38
2023/03/31 08:22:38;;;;;;;3.58;0.90;;;11.00;99.90;;;;;;5080014;28;20069;-38
2023/03/31 08:25:06;;;;;;;5.88;1.00;;;11.00;99.90;;;;;;5079115;28;20056;-38
2023/03/31 08:27:37;;;;;;;3.55;0.95;;;11.00;99.90;;;;;;5079390;28;20051;-38
2023/03/31 08:30:05;;;;;;;4.43;1.10;;;11.00;99.90;;;;;;5081544;28;20157;-38
2023/03/31 08:32:34;;;;;;;3.20;1.20;;;11.10;99.90;;;;;;5076465;28;20067;-38
2023/03/31 08:35:00;;;;;;;3.75;0.90;;;11.20;99.90;;;;;;5076205;28;20093;-38
2023/03/31 08:37:27;;;;;;;6.57;1.08;;;11.10;99.90;;;;;;5079276;28;20056;-38
2023/03/31 08:39:54;;;;;;;3.95;1.10;;;11.20;99.90;;;;;;5071460;28;20056;-38
2023/03/31 08:42:42;;;;;;;6.63;0.82;;;11.10;99.90;;;;;;5079368;28;20728;-38
2023/03/31 08:45:18;;;;;;;3.03;0.75;;;11.10;99.90;;;;;;5079245;28;20083;-37
2023/03/31 08:47:46;;;;;;;5.63;0.60;;;11.00;99.90;;;;;;5078172;28;20612;-37
2023/03/31 08:50:15;;;;;;;5.65;0.93;;;11.00;99.90;;;;;;5075003;28;20496;-43
2023/03/31 08:52:48;;;;;;;3.08;0.70;;;11.00;99.90;;;;;;5074513;28;20057;-46
2023/03/31 08:55:24;;;;;;;2.63;0.70;;;11.00;99.90;;;;;;5079604;28;20095;-45
2023/03/31 08:58:08;;;;;;;5.68;1.23;;;11.00;99.90;;;;;;5079297;28;20056;-44
2023/03/31 09:01:00;;;;;;;3.22;0.77;;;11.00;99.90;;;;;;5079873;28;20060;-44
2023/03/31 09:03:37;;;;;;;1.13;0.50;;;10.90;99.90;;;;;;5033829;28;20560;-41
2023/03/31 09:06:09;;;;;;;2.63;0.75;;;10.90;99.90;;;;;;5073800;28;20075;-46
2023/03/31 09:08:37;;;;;;;3.38;0.85;;;10.80;99.90;;;;;;5082472;28;20055;-48
2023/03/31 09:11:33;;;;;;;6.25;0.90;;;10.80;99.90;;;;;;5062709;28;20105;-46
2023/03/31 09:14:16;;;;;;;2.88;0.70;;;10.80;99.90;;;;;;5076166;28;20193;-45
2023/03/31 09:16:51;;;;;;;4.05;0.70;;;10.80;99.90;;;;;;5078587;28;20402;-44
2023/03/31 09:19:29;;;;;;;3.67;0.60;;;10.90;99.90;;;;;;5080128;28;20126;-43
2023/03/31 09:21:55;;;;;;;2.00;0.50;;;10.90;99.90;;;;;;5079548;28;20474;-47
2023/03/31 09:24:31;;;;;;;1.90;0.50;;;11.00;99.90;;;;;;5079036;28;20044;-43
2023/03/31 09:27:16;;;;;;;3.38;0.70;;;11.00;99.90;;;;;;5076771;28;20062;-38
2023/03/31 09:29:51;;;;;;;2.05;0.57;;;11.10;99.90;;;;;;5079437;28;20059;-39
2023/03/31 09:32:16;;;;;;;3.22;0.90;;;11.10;99.90;;;;;;5078884;28;20553;-38
2023/03/31 09:34:44;;;;;;;2.83;0.40;;;11.20;99.90;;;;;;5079239;28;20638;-43
2023/03/31 09:37:11;;;;;;;2.00;0.50;;;11.30;99.90;;;;;;5078346;28;20052;-47
2023/03/31 09:39:38;;;;;;;6.25;0.65;;;11.30;99.90;;;;;;5079189;28;20101;-43
2023/03/31 09:42:04;;;;;;;3.88;0.70;;;11.40;99.90;;;;;;5078634;28;20056;-43
2023/03/31 09:44:38;;;;;;;3.92;0.50;;;11.40;99.90;;;;;;5080501;28;20620;-46
2023/03/31 09:47:10;;;;;;;3.67;0.80;;;11.50;99.90;;;;;;5080067;28;20060;-43
2023/03/31 09:49:36;;;;;;;4.20;0.67;;;11.60;99.90;;;;;;5082793;28;20044;-47
2023/03/31 09:52:12;;;;;;;3.45;0.70;;;11.70;99.90;;;;;;5084543;28;20143;-43
2023/03/31 09:54:46;;;;;;;3.70;0.60;;;11.90;99.90;;;;;;5065980;28;20633;-43
2023/03/31 09:57:33;;;;;;;4.05;0.73;;;12.10;99.90;;;;;;5087900;28;20040;-44
2023/03/31 10:00:17;;;;;;;3.90;0.70;;;12.20;99.90;;;;;;5075509;28;20044;-44
2023/03/31 10:02:54;;;;;;;2.53;0.50;;;12.40;99.90;;;;;;5077675;28;20774;-41
2023/03/31 10:05:35;;;;;;;2.88;0.70;;;12.60;99.90;;;;;;5081199;28;20419;-42
2023/03/31 10:08:16;;;;;;;3.72;0.65;;;12.60;99.90;;;;;;5081850;28;20098;-42
2023/03/31 10:11:06;;;;;;;3.42;0.63;;;12.70;99.90;;;;;;5085835;28;20052;-44
2023/03/31 10:13:57;;;;;;;4.63;0.70;;;12.60;99.90;;;;;;5069723;28;20314;-43
2023/03/31 10:16:46;;;;;;;2.40;0.50;;;12.50;99.90;;;;;;5085323;28;20048;-42
2023/03/31 10:19:20;;;;;;;3.40;1.05;;;12.40;99.90;;;;;;5080920;28;20056;-42
2023/03/31 10:21:48;;;;;;;3.42;0.95;;;12.30;99.90;;;;;;5081937;28;20052;-37
2023/03/31 10:24:18;;;;;;;1.48;0.50;;;12.20;99.90;;;;;;5075956;28;20064;-37
2023/03/31 10:26:48;;;;;;;1.70;0.68;;;12.00;99.90;;;;;;5084642;28;20074;-38
2023/03/31 10:29:21;;;;;;;4.22;0.85;;;11.90;99.90;;;;;;5074485;28;20556;-39
2023/03/31 10:31:46;;;;;;;3.13;0.60;;;11.80;99.90;;;;;;5085707;28;20082;-37
2023/03/31 10:34:18;;;;;;;4.50;1.00;;;11.70;99.90;;;;;;5075660;28;20147;-38
2023/03/31 10:36:51;;;;;;;4.13;0.70;;;11.70;99.90;;;;;;5077450;28;20044;-37
2023/03/31 10:39:17;;;;;;;5.10;0.70;;;11.70;99.90;;;;;;5072955;28;20048;-37
2023/03/31 10:41:52;;;;;;;2.53;0.70;;;11.70;99.90;;;;;;5071911;28;20052;-38
2023/03/31 10:44:36;;;;;;;3.45;0.70;;;11.80;99.90;;;;;;5077173;28;20916;-37
2023/03/31 10:47:04;;;;;;;3.78;1.02;;;11.90;99.90;;;;;;5080206;28;20505;-38
2023/03/31 10:49:35;;;;;;;4.78;0.70;;;11.90;99.90;;;;;;5078454;28;20052;-38
2023/03/31 10:52:01;;;;;;;3.60;0.75;;;11.90;99.90;;;;;;5074126;28;20046;-45
2023/03/31 10:54:27;;;;;;;3.10;0.90;;;11.90;99.90;;;;;;5076379;28;20444;-37
2023/03/31 10:57:00;;;;;;;9.05;1.67;;;11.90;99.90;;;;;;5078602;28;20048;-37
2023/03/31 11:00:04;;;;;;;3.72;0.75;;;11.90;99.90;;;;;;5076973;28;20139;-37
2023/03/31 11:02:58;;;;;;;2.90;0.85;;;11.90;99.90;;;;;;5071592;28;20056;-37
2023/03/31 11:05:35;;;;;;;5.28;1.10;;;11.80;99.90;;;;;;5074439;28;20054;-36
2023/03/31 11:08:17;;;;;;;5.75;1.80;;;11.80;99.90;;;;;;5075237;28;20101;-37
2023/03/31 11:11:17;;;;;;;7.37;1.20;;;11.80;99.90;;;;;;5082744;28;20135;-37
2023/03/31 11:14:15;;;;;;;4.03;0.95;;;11.80;99.90;;;;;;5079045;28;20520;-36
2023/03/31 11:17:09;;;;;;;5.53;1.10;;;11.90;99.90;;;;;;5077127;28;20048;-37
2023/03/31 11:20:24;;;;;;;4.10;0.80;;;11.90;99.90;;;;;;5080913;28;20409;-37
2023/03/31 11:23:25;;;;;;;6.45;1.23;;;11.90;99.90;;;;;;5058131;28;20062;-37
2023/03/31 11:26:17;;;;;;;3.15;0.95;;;12.10;99.90;;;;;;5059935;28;20099;-36
2023/03/31 11:28:58;;;;;;;5.10;1.42;;;12.30;99.90;;;;;;5078434;28;20040;-37
2023/03/31 11:31:40;;;;;;;7.50;1.95;;;12.40;99.90;;;;;;5065679;28;20481;-37
2023/03/31 11:34:24;;;;;;;4.85;1.30;;;12.50;99.90;;;;;;5081005;28;20060;-37
2023/03/31 11:37:10;;;;;;;4.55;1.20;;;12.50;99.90;;;;;;5079982;28;20572;-36
2023/03/31 11:40:18;;;;;;;5.85;1.08;;;12.40;99.90;;;;;;5082499;28;20058;-38
2023/03/31 11:43:08;;;;;;;9.10;1.25;;;12.40;99.90;;;;;;5058249;28;20051;-37
2023/03/31 11:45:40;;;;;;;5.72;1.55;;;12.50;99.90;;;;;;5079929;28;21093;-39
2023/03/31 11:48:43;;;;;;;8.55;1.38;;;12.60;99.90;;;;;;5081099;28;20044;-38
2023/03/31 11:51:15;;;;;;;7.20;1.70;;;12.80;99.90;;;;;;5029454;28;20120;-48
2023/03/31 11:53:44;;;;;;;8.75;1.67;;;12.90;99.90;;;;;;5076285;28;20444;-46
2023/03/31 11:56:11;;;;;;;8.45;1.38;;;13.00;99.90;;;;;;5057378;28;20672;-45
2023/03/31 11:58:43;;;;;;;7.57;1.63;;;13.20;99.90;;;;;;5077360;28;20144;-46
2023/03/31 12:01:24;;;;;;;8.13;1.90;;;13.20;99.90;;;;;;5075209;28;20062;-45
2023/03/31 12:04:17;;;;;;;7.72;1.05;;;13.20;99.90;;;;;;5075555;28;20052;-44
2023/03/31 12:06:46;;;;;;;8.10;1.60;;;13.10;99.90;;;;;;5081717;28;20059;-45
2023/03/31 12:09:35;;;;;;;10.35;1.88;;;13.10;99.90;;;;;;5081275;28;20458;-46
2023/03/31 12:12:10;;;;;;;10.07;1.42;;;13.10;99.90;;;;;;5073102;28;20052;-46
2023/03/31 12:14:48;;;;;;;5.15;1.38;;;13.10;99.90;;;;;;5076437;28;20105;-48
2023/03/31 12:17:18;;;;;;;12.23;2.20;;;13.00;99.90;;;;;;5068193;28;20110;-45
2023/03/31 12:19:51;;;;;;;10.23;1.80;;;13.00;99.90;;;;;;5048687;28;20056;-44
2023/03/31 12:22:31;;;;;;;;;;;12.90;99.90;;;;;;5070720;28;20543;-44
2023/03/31 12:24:58;;;;;;;7.82;1.20;;;12.90;99.90;;;;;;5068491;28;20328;-43
2023/03/31 12:27:38;;;;;;;7.38;1.60;;;12.90;99.90;;;;;;5067556;28;20052;-42
2023/03/31 12:30:36;;;;;;;6.90;1.30;;;12.90;99.90;;;;;;5067232;28;20409;-37
2023/03/31 12:33:15;;;;;;;4.82;1.08;;;13.00;99.90;;;;;;5069668;28;20131;-37
2023/03/31 12:36:01;;;;;;;6.95;1.00;;;13.00;99.90;;;;;;5081569;28;20050;-39
2023/03/31 12:38:54;;;;;;;7.72;1.30;;;13.00;99.90;;;;;;5082619;28;20052;-37
2023/03/31 12:41:36;;;;;;;5.13;1.02;;;13.00;99.90;;;;;;5048284;28;20054;-38
2023/03/31 12:44:14;;;;;;;6.72;1.17;;;13.00;99.90;;;;;;5078436;28;20059;-37
2023/03/31 12:46:55;;;;;;;6.47;1.17;;;13.00;99.90;;;;;;5056021;28;20049;-37
2023/03/31 12:49:27;;;;;;;8.25;1.40;;;13.10;99.90;;;;;;5072003;28;20059;-37
2023/03/31 12:52:16;;;;;;;4.22;0.80;;;13.30;99.90;;;;;;5069851;28;20494;-37
2023/03/31 12:55:18;;;;;;;3.85;0.70;;;13.30;99.90;;;;;;5077011;28;20048;-38
2023/03/31 12:57:44;;;;;;;8.98;1.88;;;13.40;99.90;;;;;;5077202;28;20071;-38
2023/03/31 13:00:26;;;;;;;5.10;0.88;;;13.30;99.90;;;;;;5075645;28;20059;-38
2023/03/31 13:03:34;;;;;;;4.80;0.90;;;13.20;99.90;;;;;;5072892;28;20048;-38
2023/03/31 13:06:02;;;;;;;9.63;0.93;;;12.90;99.90;;;;;;5053589;28;20056;-38
2023/03/31 13:08:52;;;;;;;6.32;1.55;;;12.70;99.90;;;;;;5077388;28;20052;-38
2023/03/31 13:11:35;;;;;;;7.75;1.63;;;12.60;99.90;;;;;;5081741;28;20056;-43
2023/03/31 13:14:15;;;;;;;2.97;0.30;;;12.50;99.90;;;;;;5080240;28;20056;-42
2023/03/31 13:16:42;;;;;;;4.25;0.55;;;12.60;99.90;;;;;;5080325;28;20043;-41
2023/03/31 13:19:30;;;;;;;4.50;0.80;;;12.60;99.90;;;;;;5078178;28;20052;-45
2023/03/31 13:21:57;;;;;;;1.85;0.30;;;12.60;99.90;;;;;;5073837;28;20071;-41